sensor_id;sensor_type;location;lat;lon;timestamp;temperature;humidity
9808;DHT22;4943;52.550;13.462;2023-02-28T00:02:17;5.40;99.90
9808;DHT22;4943;52.550;13.462;2023-02-28T00:04:45;5.40;99.90
9808;DHT22;4943;52.550;13.462;2023-02-28T00:07:19;5.40;99.90
9808;DHT22;4943;52.550;13.462;2023-02-28T00:09:47;5.40;99.90
9808;DHT22;4943;52.550;13.462;2023-02-28T00:12:16;5.40;99.90
9808;DHT22;4943;52.550;13.462;2023-02-28T00:14:44;5.40;99.90
9808;DHT22;4943;52.550;13.462;2023-02-28T00:17:12;5.40;99.90
9808;DHT22;4943;52.550;13.462;2023-02-28T00:19:40;5.40;99.90
9808;DHT22;4943;52.550;13.462;2023-02-28T00:22:08;5.40;99.90
9808;DHT22;4943;52.550;13.462;2023-02-28T00:24:37;5.40;99.90
9808;DHT22;4943;52.550;13.462;2023-02-28T00:27:05;5.40;99.90
9808;DHT22;4943;52.550;13.462;2023-02-28T00:29:35;5.50;99.90
9808;DHT22;4943;52.550;13.462;2023-02-28T00:32:03;5.50;99.90
9808;DHT22;4943;52.550;13.462;2023-02-28T00:34:32;5.50;99.90
9808;DHT22;4943;52.550;13.462;2023-02-28T00:37:05;5.40;99.90
9808;DHT22;4943;52.550;13.462;2023-02-28T00:39:34;5.50;99.90
9808;DHT22;4943;52.550;13.462;2023-02-28T00:42:03;5.40;99.90
9808;DHT22;4943;52.550;13.462;2023-02-28T00:44:31;5.40;99.90
9808;DHT22;4943;52.550;13.462;2023-02-28T00:47:01;5.30;99.90
9808;DHT22;4943;52.550;13.462;2023-02-28T00:49:29;5.30;99.90
9808;DHT22;4943;52.550;13.462;2023-02-28T00:51:57;5.30;99.90
9808;DHT22;4943;52.550;13.462;2023-02-28T00:54:25;5.30;99.90
9808;DHT22;4943;52.550;13.462;2023-02-28T00:56:53;5.40;99.90
9808;DHT22;4943;52.550;13.462;2023-02-28T00:59:21;5.40;99.90
9808;DHT22;4943;52.550;13.462;2023-02-28T01:01:49;5.40;99.90
9808;DHT22;4943;52.550;13.462;2023-02-28T01:04:19;5.30;99.90
9808;DHT22;4943;52.550;13.462;2023-02-28T01:06:47;5.40;99.90
9808;DHT22;4943;52.550;13.462;2023-02-28T01:09:15;5.40;99.90
9808;DHT22;4943;52.550;13.462;2023-02-28T01:11:43;5.40;99.90
9808;DHT22;4943;52.550;13.462;2023-02-28T01:14:13;5.40;99.90
9808;DHT22;4943;52.550;13.462;2023-02-28T01:16:41;5.30;99.90
9808;DHT22;4943;52.550;13.462;2023-02-28T01:19:09;5.30;99.90
9808;DHT22;4943;52.550;13.462;2023-02-28T01:21:39;5.20;99.90
9808;DHT22;4943;52.550;13.462;2023-02-28T01:24:07;5.20;99.90
9808;DHT22;4943;52.550;13.462;2023-02-28T01:26:35;5.10;99.90
9808;DHT22;4943;52.550;13.462;2023-02-28T01:29:03;5.10;99.90
9808;DHT22;4943;52.550;13.462;2023-02-28T01:31:31;5.00;99.90
9808;DHT22;4943;52.550;13.462;2023-02-28T01:34:00;4.90;99.90
9808;DHT22;4943;52.550;13.462;2023-02-28T01:36:28;4.90;99.90
9808;DHT22;4943;52.550;13.462;2023-02-28T01:38:58;4.90;99.90
9808;DHT22;4943;52.550;13.462;2023-02-28T01:41:27;4.90;99.90
9808;DHT22;4943;52.550;13.462;2023-02-28T01:43:59;4.90;99.90
9808;DHT22;4943;52.550;13.462;2023-02-28T01:46:30;4.80;99.90
9808;DHT22;4943;52.550;13.462;2023-02-28T01:49:03;4.80;99.90
9808;DHT22;4943;52.550;13.462;2023-02-28T01:51:37;4.80;99.90
9808;DHT22;4943;52.550;13.462;2023-02-28T01:54:10;4.80;99.90
9808;DHT22;4943;52.550;13.462;2023-02-28T01:56:44;4.80;99.90
9808;DHT22;4943;52.550;13.462;2023-02-28T01:59:17;4.80;99.90
9808;DHT22;4943;52.550;13.462;2023-02-28T02:01:48;4.80;99.90
9808;DHT22;4943;52.550;13.462;2023-02-28T02:04:17;4.70;99.90
9808;DHT22;4943;52.550;13.462;2023-02-28T02:06:47;4.70;99.90
9808;DHT22;4943;52.550;13.462;2023-02-28T02:09:17;4.70;99.90
9808;DHT22;4943;52.550;13.462;2023-02-28T02:11:45;4.60;99.90
9808;DHT22;4943;52.550;13.462;2023-02-28T02:14:31;4.60;99.90
9808;DHT22;4943;52.550;13.462;2023-02-28T02:17:14;4.50;99.90
9808;DHT22;4943;52.550;13.462;2023-02-28T02:20:13;4.40;99.90
9808;DHT22;4943;52.550;13.462;2023-02-28T02:25:49;4.30;99.90
9808;DHT22;4943;52.550;13.462;2023-02-28T02:28:40;4.30;99.90
9808;DHT22;4943;52.550;13.462;2023-02-28T02:31:29;4.20;99.90
9808;DHT22;4943;52.550;13.462;2023-02-28T02:34:24;4.10;99.90
9808;DHT22;4943;52.550;13.462;2023-02-28T02:37:02;4.10;99.90
9808;DHT22;4943;52.550;13.462;2023-02-28T02:39:38;4.00;99.90
9808;DHT22;4943;52.550;13.462;2023-02-28T02:42:13;4.00;99.90
9808;DHT22;4943;52.550;13.462;2023-02-28T02:44:45;3.90;99.90
9808;DHT22;4943;52.550;13.462;2023-02-28T02:47:17;3.90;99.90
9808;DHT22;4943;52.550;13.462;2023-02-28T02:49:50;3.90;99.90
9808;DHT22;4943;52.550;13.462;2023-02-28T02:52:22;3.80;99.90
9808;DHT22;4943;52.550;13.462;2023-02-28T02:54:54;3.80;99.90
9808;DHT22;4943;52.550;13.462;2023-02-28T02:57:25;3.80;99.90
9808;DHT22;4943;52.550;13.462;2023-02-28T02:59:56;3.70;99.90
9808;DHT22;4943;52.550;13.462;2023-02-28T03:02:25;3.70;99.90
9808;DHT22;4943;52.550;13.462;2023-02-28T03:04:59;3.70;99.90
9808;DHT22;4943;52.550;13.462;2023-02-28T03:07:29;3.60;99.90
9808;DHT22;4943;52.550;13.462;2023-02-28T03:09:57;3.60;99.90
9808;DHT22;4943;52.550;13.462;2023-02-28T03:12:33;3.60;99.90
9808;DHT22;4943;52.550;13.462;2023-02-28T03:15:11;3.60;99.90
9808;DHT22;4943;52.550;13.462;2023-02-28T03:17:54;3.60;99.90
9808;DHT22;4943;52.550;13.462;2023-02-28T03:20:35;3.50;99.90
9808;DHT22;4943;52.550;13.462;2023-02-28T03:23:17;3.50;99.90
9808;DHT22;4943;52.550;13.462;2023-02-28T03:25:56;3.50;99.90
9808;DHT22;4943;52.550;13.462;2023-02-28T03:28:31;3.50;99.90
9808;DHT22;4943;52.550;13.462;2023-02-28T03:31:03;3.40;99.90
9808;DHT22;4943;52.550;13.462;2023-02-28T03:33:38;3.40;99.90
9808;DHT22;4943;52.550;13.462;2023-02-28T03:36:11;3.40;99.90
9808;DHT22;4943;52.550;13.462;2023-02-28T03:38:44;3.30;99.90
9808;DHT22;4943;52.550;13.462;2023-02-28T03:41:15;3.30;99.90
9808;DHT22;4943;52.550;13.462;2023-02-28T03:43:48;3.30;99.90
9808;DHT22;4943;52.550;13.462;2023-02-28T03:46:21;3.30;99.90
9808;DHT22;4943;52.550;13.462;2023-02-28T03:48:53;3.30;99.90
9808;DHT22;4943;52.550;13.462;2023-02-28T03:51:26;3.30;99.90
9808;DHT22;4943;52.550;13.462;2023-02-28T03:53:59;3.30;99.90
9808;DHT22;4943;52.550;13.462;2023-02-28T03:56:32;3.30;99.90
9808;DHT22;4943;52.550;13.462;2023-02-28T03:59:06;3.20;99.90
9808;DHT22;4943;52.550;13.462;2023-02-28T04:01:37;3.20;99.90
9808;DHT22;4943;52.550;13.462;2023-02-28T04:04:08;3.20;99.90
9808;DHT22;4943;52.550;13.462;2023-02-28T04:06:38;3.20;99.90
9808;DHT22;4943;52.550;13.462;2023-02-28T04:09:09;3.20;99.90
9808;DHT22;4943;52.550;13.462;2023-02-28T04:11:37;3.20;99.90
9808;DHT22;4943;52.550;13.462;2023-02-28T04:14:07;3.10;99.90
9808;DHT22;4943;52.550;13.462;2023-02-28T04:16:37;3.10;99.90
9808;DHT22;4943;52.550;13.462;2023-02-28T04:19:07;3.00;99.90
9808;DHT22;4943;52.550;13.462;2023-02-28T04:21:38;3.00;99.90
9808;DHT22;4943;52.550;13.462;2023-02-28T04:24:08;2.90;99.90
9808;DHT22;4943;52.550;13.462;2023-02-28T04:26:42;2.90;99.90
9808;DHT22;4943;52.550;13.462;2023-02-28T04:29:12;2.90;99.90
9808;DHT22;4943;52.550;13.462;2023-02-28T04:31:40;2.90;99.90
9808;DHT22;4943;52.550;13.462;2023-02-28T04:34:09;2.90;99.90
9808;DHT22;4943;52.550;13.462;2023-02-28T04:36:38;2.90;99.90
9808;DHT22;4943;52.550;13.462;2023-02-28T04:39:06;2.90;99.90
9808;DHT22;4943;52.550;13.462;2023-02-28T04:41:34;2.80;99.90
9808;DHT22;4943;52.550;13.462;2023-02-28T04:44:02;2.80;99.90
9808;DHT22;4943;52.550;13.462;2023-02-28T04:46:30;2.80;99.90
9808;DHT22;4943;52.550;13.462;2023-02-28T04:48:58;2.80;99.90
9808;DHT22;4943;52.550;13.462;2023-02-28T04:51:26;2.80;99.90
9808;DHT22;4943;52.550;13.462;2023-02-28T04:53:56;2.70;99.90
9808;DHT22;4943;52.550;13.462;2023-02-28T04:56:24;2.70;99.90
9808;DHT22;4943;52.550;13.462;2023-02-28T04:58:52;2.70;99.90
9808;DHT22;4943;52.550;13.462;2023-02-28T05:01:24;2.70;99.90
9808;DHT22;4943;52.550;13.462;2023-02-28T05:03:53;2.70;99.90
9808;DHT22;4943;52.550;13.462;2023-02-28T05:06:23;2.60;99.90
9808;DHT22;4943;52.550;13.462;2023-02-28T05:08:51;2.60;99.90
9808;DHT22;4943;52.550;13.462;2023-02-28T05:11:22;2.60;99.90
9808;DHT22;4943;52.550;13.462;2023-02-28T05:13:52;2.60;99.90
9808;DHT22;4943;52.550;13.462;2023-02-28T05:16:21;2.60;99.90
9808;DHT22;4943;52.550;13.462;2023-02-28T05:18:50;2.60;99.90
9808;DHT22;4943;52.550;13.462;2023-02-28T05:21:25;2.50;99.90
9808;DHT22;4943;52.550;13.462;2023-02-28T05:23:54;2.50;99.90
9808;DHT22;4943;52.550;13.462;2023-02-28T05:26:25;2.50;99.90
9808;DHT22;4943;52.550;13.462;2023-02-28T05:28:53;2.40;99.90
9808;DHT22;4943;52.550;13.462;2023-02-28T05:31:22;2.40;99.90
9808;DHT22;4943;52.550;13.462;2023-02-28T05:33:50;2.40;99.90
9808;DHT22;4943;52.550;13.462;2023-02-28T05:36:19;2.40;99.90
9808;DHT22;4943;52.550;13.462;2023-02-28T05:38:48;2.40;99.90
9808;DHT22;4943;52.550;13.462;2023-02-28T05:41:17;2.40;99.90
9808;DHT22;4943;52.550;13.462;2023-02-28T05:43:47;2.40;99.90
9808;DHT22;4943;52.550;13.462;2023-02-28T05:46:16;2.40;99.90
9808;DHT22;4943;52.550;13.462;2023-02-28T05:48:46;2.30;99.90
9808;DHT22;4943;52.550;13.462;2023-02-28T05:51:16;2.30;99.90
9808;DHT22;4943;52.550;13.462;2023-02-28T05:53:44;2.30;99.90
9808;DHT22;4943;52.550;13.462;2023-02-28T05:56:12;2.40;99.90
9808;DHT22;4943;52.550;13.462;2023-02-28T05:58:40;2.40;99.90
9808;DHT22;4943;52.550;13.462;2023-02-28T06:01:31;2.30;99.90
9808;DHT22;4943;52.550;13.462;2023-02-28T06:04:00;2.40;99.90
9808;DHT22;4943;52.550;13.462;2023-02-28T06:06:29;2.30;99.90
9808;DHT22;4943;52.550;13.462;2023-02-28T06:08:57;2.30;99.90
9808;DHT22;4943;52.550;13.462;2023-02-28T06:11:25;2.30;99.90
9808;DHT22;4943;52.550;13.462;2023-02-28T06:13:56;2.30;99.90
9808;DHT22;4943;52.550;13.462;2023-02-28T06:16:28;2.40;99.90
9808;DHT22;4943;52.550;13.462;2023-02-28T06:18:58;2.40;99.90
9808;DHT22;4943;52.550;13.462;2023-02-28T06:21:26;2.40;99.90
9808;DHT22;4943;52.550;13.462;2023-02-28T06:23:56;2.40;99.90
9808;DHT22;4943;52.550;13.462;2023-02-28T06:26:25;2.40;99.90
9808;DHT22;4943;52.550;13.462;2023-02-28T06:28:53;2.40;99.90
9808;DHT22;4943;52.550;13.462;2023-02-28T06:31:21;2.40;99.90
9808;DHT22;4943;52.550;13.462;2023-02-28T06:33:52;2.40;99.90
9808;DHT22;4943;52.550;13.462;2023-02-28T06:36:20;2.40;99.90
9808;DHT22;4943;52.550;13.462;2023-02-28T06:38:48;2.40;99.90
9808;DHT22;4943;52.550;13.462;2023-02-28T06:41:22;2.40;99.90
9808;DHT22;4943;52.550;13.462;2023-02-28T06:43:50;2.40;99.90
9808;DHT22;4943;52.550;13.462;2023-02-28T06:46:19;2.40;99.90
9808;DHT22;4943;52.550;13.462;2023-02-28T06:48:48;2.50;99.90
9808;DHT22;4943;52.550;13.462;2023-02-28T06:51:19;2.50;99.90
9808;DHT22;4943;52.550;13.462;2023-02-28T06:53:48;2.50;99.90
9808;DHT22;4943;52.550;13.462;2023-02-28T06:56:19;2.60;99.90
9808;DHT22;4943;52.550;13.462;2023-02-28T06:58:48;2.60;99.90
9808;DHT22;4943;52.550;13.462;2023-02-28T07:01:17;2.60;99.90
9808;DHT22;4943;52.550;13.462;2023-02-28T07:03:46;2.60;99.90
9808;DHT22;4943;52.550;13.462;2023-02-28T07:06:20;2.70;99.90
9808;DHT22;4943;52.550;13.462;2023-02-28T07:08:50;2.70;99.90
9808;DHT22;4943;52.550;13.462;2023-02-28T07:11:20;2.70;99.90
9808;DHT22;4943;52.550;13.462;2023-02-28T07:13:49;2.70;99.90
9808;DHT22;4943;52.550;13.462;2023-02-28T07:16:18;2.80;99.90
9808;DHT22;4943;52.550;13.462;2023-02-28T07:18:46;2.80;99.90
9808;DHT22;4943;52.550;13.462;2023-02-28T07:21:14;2.90;99.90
9808;DHT22;4943;52.550;13.462;2023-02-28T07:23:44;2.90;99.90
9808;DHT22;4943;52.550;13.462;2023-02-28T07:26:14;3.00;99.90
9808;DHT22;4943;52.550;13.462;2023-02-28T07:28:42;3.00;99.90
9808;DHT22;4943;52.550;13.462;2023-02-28T07:31:11;3.00;99.90
9808;DHT22;4943;52.550;13.462;2023-02-28T07:33:41;3.10;99.90
9808;DHT22;4943;52.550;13.462;2023-02-28T07:36:11;3.10;99.90
9808;DHT22;4943;52.550;13.462;2023-02-28T07:38:42;3.20;99.90
9808;DHT22;4943;52.550;13.462;2023-02-28T07:41:15;3.20;99.90
9808;DHT22;4943;52.550;13.462;2023-02-28T07:43:43;3.30;99.90
9808;DHT22;4943;52.550;13.462;2023-02-28T07:46:13;3.30;99.90
9808;DHT22;4943;52.550;13.462;2023-02-28T07:48:43;3.40;99.90
9808;DHT22;4943;52.550;13.462;2023-02-28T07:51:11;3.40;99.90
9808;DHT22;4943;52.550;13.462;2023-02-28T07:53:39;3.40;99.90
9808;DHT22;4943;52.550;13.462;2023-02-28T07:56:08;3.50;99.90
9808;DHT22;4943;52.550;13.462;2023-02-28T07:58:38;3.50;99.90
9808;DHT22;4943;52.550;13.462;2023-02-28T08:01:07;3.60;99.90
9808;DHT22;4943;52.550;13.462;2023-02-28T08:03:36;3.70;99.90
9808;DHT22;4943;52.550;13.462;2023-02-28T08:06:06;3.70;99.90
9808;DHT22;4943;52.550;13.462;2023-02-28T08:08:34;3.80;99.90
9808;DHT22;4943;52.550;13.462;2023-02-28T08:11:03;3.80;99.90
9808;DHT22;4943;52.550;13.462;2023-02-28T08:13:31;3.90;99.90
9808;DHT22;4943;52.550;13.462;2023-02-28T08:16:01;3.90;99.90
9808;DHT22;4943;52.550;13.462;2023-02-28T08:18:30;4.00;99.90
9808;DHT22;4943;52.550;13.462;2023-02-28T08:20:59;4.00;99.90
9808;DHT22;4943;52.550;13.462;2023-02-28T08:23:34;4.10;99.90
9808;DHT22;4943;52.550;13.462;2023-02-28T08:26:02;4.00;99.90
9808;DHT22;4943;52.550;13.462;2023-02-28T08:28:31;4.10;99.90
9808;DHT22;4943;52.550;13.462;2023-02-28T08:31:01;4.20;99.90
9808;DHT22;4943;52.550;13.462;2023-02-28T08:33:34;4.30;99.90
9808;DHT22;4943;52.550;13.462;2023-02-28T08:36:03;4.30;99.90
9808;DHT22;4943;52.550;13.462;2023-02-28T08:38:31;4.30;99.90
9808;DHT22;4943;52.550;13.462;2023-02-28T08:41:01;4.40;99.90
9808;DHT22;4943;52.550;13.462;2023-02-28T08:43:29;4.40;99.90
9808;DHT22;4943;52.550;13.462;2023-02-28T08:45:57;4.50;99.90
9808;DHT22;4943;52.550;13.462;2023-02-28T08:48:29;4.50;99.90
9808;DHT22;4943;52.550;13.462;2023-02-28T08:50:59;4.60;99.90
9808;DHT22;4943;52.550;13.462;2023-02-28T08:53:35;4.60;99.90
9808;DHT22;4943;52.550;13.462;2023-02-28T08:56:05;4.70;99.90
9808;DHT22;4943;52.550;13.462;2023-02-28T08:58:34;4.70;99.90
9808;DHT22;4943;52.550;13.462;2023-02-28T09:01:08;4.70;99.90
9808;DHT22;4943;52.550;13.462;2023-02-28T09:03:38;4.80;99.90
9808;DHT22;4943;52.550;13.462;2023-02-28T09:06:09;4.80;99.90
9808;DHT22;4943;52.550;13.462;2023-02-28T09:08:38;4.80;99.90
9808;DHT22;4943;52.550;13.462;2023-02-28T09:11:07;4.80;99.90
9808;DHT22;4943;52.550;13.462;2023-02-28T09:13:35;4.80;99.90
9808;DHT22;4943;52.550;13.462;2023-02-28T09:16:05;4.90;99.90
9808;DHT22;4943;52.550;13.462;2023-02-28T09:18:34;4.90;99.90
9808;DHT22;4943;52.550;13.462;2023-02-28T09:21:06;4.90;99.90
9808;DHT22;4943;52.550;13.462;2023-02-28T09:23:35;4.90;99.90
9808;DHT22;4943;52.550;13.462;2023-02-28T09:26:05;5.00;99.90
9808;DHT22;4943;52.550;13.462;2023-02-28T09:28:33;5.00;99.90
9808;DHT22;4943;52.550;13.462;2023-02-28T09:31:01;5.10;99.90
9808;DHT22;4943;52.550;13.462;2023-02-28T09:33:31;5.10;99.90
9808;DHT22;4943;52.550;13.462;2023-02-28T09:36:02;5.20;99.90
9808;DHT22;4943;52.550;13.462;2023-02-28T09:38:32;5.20;99.90
9808;DHT22;4943;52.550;13.462;2023-02-28T09:41:01;5.20;99.90
9808;DHT22;4943;52.550;13.462;2023-02-28T09:43:35;5.30;99.90
9808;DHT22;4943;52.550;13.462;2023-02-28T09:46:11;5.30;99.90
9808;DHT22;4943;52.550;13.462;2023-02-28T09:48:43;5.30;99.90
9808;DHT22;4943;52.550;13.462;2023-02-28T09:51:30;5.30;99.90
9808;DHT22;4943;52.550;13.462;2023-02-28T09:54:02;5.40;99.90
9808;DHT22;4943;52.550;13.462;2023-02-28T09:56:36;5.40;99.90
9808;DHT22;4943;52.550;13.462;2023-02-28T09:59:11;5.40;99.90
9808;DHT22;4943;52.550;13.462;2023-02-28T10:01:45;5.40;99.90
9808;DHT22;4943;52.550;13.462;2023-02-28T10:04:34;5.40;99.80
9808;DHT22;4943;52.550;13.462;2023-02-28T10:07:08;5.40;99.60
9808;DHT22;4943;52.550;13.462;2023-02-28T10:09:49;5.40;99.80
9808;DHT22;4943;52.550;13.462;2023-02-28T10:12:20;5.40;99.90
9808;DHT22;4943;52.550;13.462;2023-02-28T10:14:51;5.50;99.90
9808;DHT22;4943;52.550;13.462;2023-02-28T10:17:23;5.50;99.90
9808;DHT22;4943;52.550;13.462;2023-02-28T10:19:58;5.60;99.30
9808;DHT22;4943;52.550;13.462;2023-02-28T10:22:38;5.50;99.30
9808;DHT22;4943;52.550;13.462;2023-02-28T10:25:17;5.60;99.80
9808;DHT22;4943;52.550;13.462;2023-02-28T10:27:45;5.60;99.90
9808;DHT22;4943;52.550;13.462;2023-02-28T10:30:14;5.70;99.90
9808;DHT22;4943;52.550;13.462;2023-02-28T10:32:47;5.70;99.80
9808;DHT22;4943;52.550;13.462;2023-02-28T10:35:19;5.70;99.90
9808;DHT22;4943;52.550;13.462;2023-02-28T10:37:49;5.80;99.90
9808;DHT22;4943;52.550;13.462;2023-02-28T10:40:31;5.80;99.90
9808;DHT22;4943;52.550;13.462;2023-02-28T10:43:00;5.90;99.70
9808;DHT22;4943;52.550;13.462;2023-02-28T10:45:30;5.90;98.80
9808;DHT22;4943;52.550;13.462;2023-02-28T10:48:02;5.80;98.40
9808;DHT22;4943;52.550;13.462;2023-02-28T10:50:35;5.80;98.70
9808;DHT22;4943;52.550;13.462;2023-02-28T10:53:22;5.70;98.40
9808;DHT22;4943;52.550;13.462;2023-02-28T10:56:01;5.70;97.80
9808;DHT22;4943;52.550;13.462;2023-02-28T10:58:33;5.60;97.80
9808;DHT22;4943;52.550;13.462;2023-02-28T11:01:14;5.60;97.50
9808;DHT22;4943;52.550;13.462;2023-02-28T11:03:43;5.60;97.80
9808;DHT22;4943;52.550;13.462;2023-02-28T11:06:16;5.70;98.20
9808;DHT22;4943;52.550;13.462;2023-02-28T11:08:50;5.70;98.40
9808;DHT22;4943;52.550;13.462;2023-02-28T11:11:22;5.80;98.50
9808;DHT22;4943;52.550;13.462;2023-02-28T11:13:53;5.90;98.30
9808;DHT22;4943;52.550;13.462;2023-02-28T11:16:22;5.90;98.20
9808;DHT22;4943;52.550;13.462;2023-02-28T11:18:59;6.00;98.50
9808;DHT22;4943;52.550;13.462;2023-02-28T11:21:28;6.00;98.60
9808;DHT22;4943;52.550;13.462;2023-02-28T11:24:02;6.10;98.70
9808;DHT22;4943;52.550;13.462;2023-02-28T11:26:42;6.20;98.80
9808;DHT22;4943;52.550;13.462;2023-02-28T11:29:15;6.20;98.40
9808;DHT22;4943;52.550;13.462;2023-02-28T11:35:01;6.20;98.00
9808;DHT22;4943;52.550;13.462;2023-02-28T11:37:31;6.10;98.00
9808;DHT22;4943;52.550;13.462;2023-02-28T11:39:59;6.10;97.80
9808;DHT22;4943;52.550;13.462;2023-02-28T11:42:43;6.10;97.80
9808;DHT22;4943;52.550;13.462;2023-02-28T11:45:35;6.20;98.20
9808;DHT22;4943;52.550;13.462;2023-02-28T11:48:08;6.20;97.80
9808;DHT22;4943;52.550;13.462;2023-02-28T11:51:05;6.40;97.60
9808;DHT22;4943;52.550;13.462;2023-02-28T11:53:48;6.40;96.70
9808;DHT22;4943;52.550;13.462;2023-02-28T11:56:23;6.30;97.00
9808;DHT22;4943;52.550;13.462;2023-02-28T11:59:04;6.20;96.80
9808;DHT22;4943;52.550;13.462;2023-02-28T12:01:46;6.20;96.80
9808;DHT22;4943;52.550;13.462;2023-02-28T12:04:26;6.20;97.40
9808;DHT22;4943;52.550;13.462;2023-02-28T12:07:02;6.20;97.80
9808;DHT22;4943;52.550;13.462;2023-02-28T12:09:44;6.30;97.00
9808;DHT22;4943;52.550;13.462;2023-02-28T12:12:34;6.30;96.90
9808;DHT22;4943;52.550;13.462;2023-02-28T12:15:26;6.20;96.60
9808;DHT22;4943;52.550;13.462;2023-02-28T12:20:49;6.20;97.20
9808;DHT22;4943;52.550;13.462;2023-02-28T12:23:33;6.30;97.60
9808;DHT22;4943;52.550;13.462;2023-02-28T12:26:12;6.40;97.60
9808;DHT22;4943;52.550;13.462;2023-02-28T12:28:47;6.50;97.90
9808;DHT22;4943;52.550;13.462;2023-02-28T12:31:21;6.50;97.50
9808;DHT22;4943;52.550;13.462;2023-02-28T12:33:53;6.60;97.30
9808;DHT22;4943;52.550;13.462;2023-02-28T12:36:22;6.60;97.30
9808;DHT22;4943;52.550;13.462;2023-02-28T12:38:55;6.50;97.30
9808;DHT22;4943;52.550;13.462;2023-02-28T12:41:29;6.50;97.50
9808;DHT22;4943;52.550;13.462;2023-02-28T12:44:03;6.60;97.60
9808;DHT22;4943;52.550;13.462;2023-02-28T12:46:38;6.60;97.40
9808;DHT22;4943;52.550;13.462;2023-02-28T12:49:12;6.60;97.40
9808;DHT22;4943;52.550;13.462;2023-02-28T12:51:41;6.60;97.70
9808;DHT22;4943;52.550;13.462;2023-02-28T12:54:16;6.70;97.80
9808;DHT22;4943;52.550;13.462;2023-02-28T12:56:53;6.80;98.30
9808;DHT22;4943;52.550;13.462;2023-02-28T12:59:25;6.80;97.60
9808;DHT22;4943;52.550;13.462;2023-02-28T13:02:09;6.80;97.80
9808;DHT22;4943;52.550;13.462;2023-02-28T13:04:57;6.90;97.80
9808;DHT22;4943;52.550;13.462;2023-02-28T13:10:46;6.90;97.20
9808;DHT22;4943;52.550;13.462;2023-02-28T13:13:18;6.80;97.00
9808;DHT22;4943;52.550;13.462;2023-02-28T13:16:04;6.80;97.20
9808;DHT22;4943;52.550;13.462;2023-02-28T13:18:37;6.90;97.40
9808;DHT22;4943;52.550;13.462;2023-02-28T13:21:07;6.90;97.40
9808;DHT22;4943;52.550;13.462;2023-02-28T13:29:28;7.00;97.50
9808;DHT22;4943;52.550;13.462;2023-02-28T13:32:30;7.00;97.40
9808;DHT22;4943;52.550;13.462;2023-02-28T13:35:14;7.00;96.90
9808;DHT22;4943;52.550;13.462;2023-02-28T13:37:43;7.00;96.50
9808;DHT22;4943;52.550;13.462;2023-02-28T13:40:28;7.00;96.80
9808;DHT22;4943;52.550;13.462;2023-02-28T13:43:07;7.00;96.70
9808;DHT22;4943;52.550;13.462;2023-02-28T13:45:36;7.00;96.80
9808;DHT22;4943;52.550;13.462;2023-02-28T13:48:16;7.00;96.80
9808;DHT22;4943;52.550;13.462;2023-02-28T13:50:47;7.00;97.00
9808;DHT22;4943;52.550;13.462;2023-02-28T13:56:30;7.10;97.10
9808;DHT22;4943;52.550;13.462;2023-02-28T13:59:06;7.20;97.30
9808;DHT22;4943;52.550;13.462;2023-02-28T14:04:54;7.20;96.60
9808;DHT22;4943;52.550;13.462;2023-02-28T14:07:31;7.10;96.10
9808;DHT22;4943;52.550;13.462;2023-02-28T14:10:04;7.10;96.30
9808;DHT22;4943;52.550;13.462;2023-02-28T14:12:58;7.10;96.40
9808;DHT22;4943;52.550;13.462;2023-02-28T14:15:46;7.10;96.40
9808;DHT22;4943;52.550;13.462;2023-02-28T14:18:19;7.20;96.50
9808;DHT22;4943;52.550;13.462;2023-02-28T14:24:01;7.10;95.60
9808;DHT22;4943;52.550;13.462;2023-02-28T14:32:54;7.00;96.00
9808;DHT22;4943;52.550;13.462;2023-02-28T14:35:40;7.00;96.20
9808;DHT22;4943;52.550;13.462;2023-02-28T14:38:17;7.10;96.10
9808;DHT22;4943;52.550;13.462;2023-02-28T14:40:51;7.10;95.70
9808;DHT22;4943;52.550;13.462;2023-02-28T14:43:22;7.00;95.70
9808;DHT22;4943;52.550;13.462;2023-02-28T14:45:51;7.00;95.80
9808;DHT22;4943;52.550;13.462;2023-02-28T14:48:21;7.00;95.70
9808;DHT22;4943;52.550;13.462;2023-02-28T14:50:54;7.00;96.00
9808;DHT22;4943;52.550;13.462;2023-02-28T14:53:26;7.00;95.90
9808;DHT22;4943;52.550;13.462;2023-02-28T14:55:56;7.00;95.60
9808;DHT22;4943;52.550;13.462;2023-02-28T14:58:26;7.00;95.60
9808;DHT22;4943;52.550;13.462;2023-02-28T15:00:56;7.00;95.50
9808;DHT22;4943;52.550;13.462;2023-02-28T15:03:31;6.90;95.40
9808;DHT22;4943;52.550;13.462;2023-02-28T15:06:01;6.90;95.30
9808;DHT22;4943;52.550;13.462;2023-02-28T15:08:30;6.90;95.50
9808;DHT22;4943;52.550;13.462;2023-02-28T15:11:05;6.90;95.80
9808;DHT22;4943;52.550;13.462;2023-02-28T15:13:37;7.00;96.00
9808;DHT22;4943;52.550;13.462;2023-02-28T15:16:10;7.00;96.10
9808;DHT22;4943;52.550;13.462;2023-02-28T15:18:44;7.10;96.20
9808;DHT22;4943;52.550;13.462;2023-02-28T15:21:16;7.10;96.20
9808;DHT22;4943;52.550;13.462;2023-02-28T15:23:49;7.10;96.20
9808;DHT22;4943;52.550;13.462;2023-02-28T15:26:20;7.10;96.10
9808;DHT22;4943;52.550;13.462;2023-02-28T15:28:50;7.10;96.10
9808;DHT22;4943;52.550;13.462;2023-02-28T15:31:23;7.10;96.20
9808;DHT22;4943;52.550;13.462;2023-02-28T15:33:55;7.10;96.20
9808;DHT22;4943;52.550;13.462;2023-02-28T15:36:26;7.10;96.20
9808;DHT22;4943;52.550;13.462;2023-02-28T15:38:56;7.10;96.20
9808;DHT22;4943;52.550;13.462;2023-02-28T15:41:42;7.10;96.10
9808;DHT22;4943;52.550;13.462;2023-02-28T15:44:17;7.00;95.90
9808;DHT22;4943;52.550;13.462;2023-02-28T15:46:54;7.00;96.10
9808;DHT22;4943;52.550;13.462;2023-02-28T15:49:23;7.00;96.30
9808;DHT22;4943;52.550;13.462;2023-02-28T15:51:52;7.00;96.30
9808;DHT22;4943;52.550;13.462;2023-02-28T15:54:23;6.90;96.10
9808;DHT22;4943;52.550;13.462;2023-02-28T15:56:57;6.90;96.20
9808;DHT22;4943;52.550;13.462;2023-02-28T15:59:28;6.90;96.10
9808;DHT22;4943;52.550;13.462;2023-02-28T16:02:12;6.90;96.10
9808;DHT22;4943;52.550;13.462;2023-02-28T16:05:12;6.80;96.00
9808;DHT22;4943;52.550;13.462;2023-02-28T16:07:42;6.80;96.00
9808;DHT22;4943;52.550;13.462;2023-02-28T16:10:12;6.70;96.10
9808;DHT22;4943;52.550;13.462;2023-02-28T16:12:42;6.80;96.20
9808;DHT22;4943;52.550;13.462;2023-02-28T16:15:18;6.70;96.20
9808;DHT22;4943;52.550;13.462;2023-02-28T16:17:47;6.80;96.30
9808;DHT22;4943;52.550;13.462;2023-02-28T16:20:18;6.80;96.30
9808;DHT22;4943;52.550;13.462;2023-02-28T16:22:47;6.80;96.20
9808;DHT22;4943;52.550;13.462;2023-02-28T16:25:16;6.70;96.10
9808;DHT22;4943;52.550;13.462;2023-02-28T16:27:48;6.70;96.00
9808;DHT22;4943;52.550;13.462;2023-02-28T16:30:20;6.60;96.10
9808;DHT22;4943;52.550;13.462;2023-02-28T16:32:49;6.60;96.10
9808;DHT22;4943;52.550;13.462;2023-02-28T16:35:18;6.60;96.20
9808;DHT22;4943;52.550;13.462;2023-02-28T16:37:46;6.50;96.10
9808;DHT22;4943;52.550;13.462;2023-02-28T16:40:16;6.50;96.20
9808;DHT22;4943;52.550;13.462;2023-02-28T16:42:47;6.40;96.10
9808;DHT22;4943;52.550;13.462;2023-02-28T16:45:17;6.40;96.20
9808;DHT22;4943;52.550;13.462;2023-02-28T16:47:46;6.40;96.20
9808;DHT22;4943;52.550;13.462;2023-02-28T16:50:16;6.40;96.20
9808;DHT22;4943;52.550;13.462;2023-02-28T16:52:44;6.30;96.20
9808;DHT22;4943;52.550;13.462;2023-02-28T16:55:12;6.30;96.20
9808;DHT22;4943;52.550;13.462;2023-02-28T16:57:40;6.20;96.20
9808;DHT22;4943;52.550;13.462;2023-02-28T17:00:13;6.20;96.20
9808;DHT22;4943;52.550;13.462;2023-02-28T17:02:42;6.20;96.30
9808;DHT22;4943;52.550;13.462;2023-02-28T17:05:11;6.10;96.30
9808;DHT22;4943;52.550;13.462;2023-02-28T17:07:39;6.10;96.30
9808;DHT22;4943;52.550;13.462;2023-02-28T17:10:14;6.00;96.30